sensor_id;sensor_type;location;lat;lon;timestamp;P1;durP1;ratioP1;P2;durP2;ratioP2
54665;SDS011;40566;50.006;36.180;2023-11-21T00:03:51;1.15;;;1.05;;
54665;SDS011;40566;50.006;36.180;2023-11-21T00:08:55;0.60;;;0.40;;
54665;SDS011;40566;50.006;36.180;2023-11-21T00:13:56;1.50;;;0.80;;
54665;SDS011;40566;50.006;36.180;2023-11-21T00:18:57;0.30;;;0.30;;
54665;SDS011;40566;50.006;36.180;2023-11-21T00:23:58;2.53;;;1.20;;
54665;SDS011;40566;50.006;36.180;2023-11-21T00:28:58;2.17;;;1.20;;
54665;SDS011;40566;50.006;36.180;2023-11-21T00:33:59;0.35;;;0.35;;
54665;SDS011;40566;50.006;36.180;2023-11-21T00:38:59;1.63;;;0.75;;
54665;SDS011;40566;50.006;36.180;2023-11-21T00:44:00;1.55;;;0.75;;
54665;SDS011;40566;50.006;36.180;2023-11-21T00:49:01;3.03;;;0.60;;
54665;SDS011;40566;50.006;36.180;2023-11-21T00:54:04;1.85;;;0.85;;
54665;SDS011;40566;50.006;36.180;2023-11-21T00:59:05;1.65;;;1.00;;
54665;SDS011;40566;50.006;36.180;2023-11-21T01:04:05;1.45;;;0.68;;
54665;SDS011;40566;50.006;36.180;2023-11-21T01:09:07;0.38;;;0.38;;
54665;SDS011;40566;50.006;36.180;2023-11-21T01:14:08;2.00;;;0.98;;
54665;SDS011;40566;50.006;36.180;2023-11-21T01:19:10;1.58;;;1.10;;
54665;SDS011;40566;50.006;36.180;2023-11-21T01:24:11;4.82;;;1.80;;
54665;SDS011;40566;50.006;36.180;2023-11-21T01:29:11;0.40;;;0.40;;
54665;SDS011;40566;50.006;36.180;2023-11-21T01:34:13;2.75;;;1.33;;
54665;SDS011;40566;50.006;36.180;2023-11-21T01:39:15;1.67;;;0.90;;
54665;SDS011;40566;50.006;36.180;2023-11-21T01:44:16;4.50;;;1.75;;
54665;SDS011;40566;50.006;36.180;2023-11-21T01:49:17;2.92;;;2.10;;
54665;SDS011;40566;50.006;36.180;2023-11-21T01:54:18;2.88;;;1.83;;
54665;SDS011;40566;50.006;36.180;2023-11-21T01:59:20;1.33;;;0.75;;
54665;SDS011;40566;50.006;36.180;2023-11-21T02:04:22;7.70;;;3.00;;
54665;SDS011;40566;50.006;36.180;2023-11-21T02:09:25;3.58;;;1.85;;
54665;SDS011;40566;50.006;36.180;2023-11-21T02:14:27;2.45;;;1.85;;
54665;SDS011;40566;50.006;36.180;2023-11-21T02:19:28;4.35;;;2.30;;
54665;SDS011;40566;50.006;36.180;2023-11-21T02:24:29;2.70;;;1.45;;
54665;SDS011;40566;50.006;36.180;2023-11-21T02:29:31;4.15;;;2.25;;
54665;SDS011;40566;50.006;36.180;2023-11-21T02:34:31;2.80;;;1.38;;
54665;SDS011;40566;50.006;36.180;2023-11-21T02:39:32;6.35;;;1.15;;
54665;SDS011;40566;50.006;36.180;2023-11-21T02:44:32;3.63;;;1.83;;
54665;SDS011;40566;50.006;36.180;2023-11-21T02:49:33;2.72;;;1.42;;
54665;SDS011;40566;50.006;36.180;2023-11-21T02:54:34;4.80;;;2.15;;
54665;SDS011;40566;50.006;36.180;2023-11-21T02:59:36;2.60;;;1.50;;
54665;SDS011;40566;50.006;36.180;2023-11-21T03:04:37;3.25;;;2.17;;
54665;SDS011;40566;50.006;36.180;2023-11-21T03:09:37;2.63;;;1.52;;
54665;SDS011;40566;50.006;36.180;2023-11-21T03:14:39;5.45;;;2.08;;
54665;SDS011;40566;50.006;36.180;2023-11-21T03:19:41;3.47;;;1.75;;
54665;SDS011;40566;50.006;36.180;2023-11-21T03:24:42;5.47;;;2.55;;
54665;SDS011;40566;50.006;36.180;2023-11-21T03:29:42;4.15;;;0.95;;
54665;SDS011;40566;50.006;36.180;2023-11-21T03:34:54;2.50;;;1.23;;
54665;SDS011;40566;50.006;36.180;2023-11-21T03:39:56;3.55;;;1.33;;
54665;SDS011;40566;50.006;36.180;2023-11-21T03:44:57;2.95;;;1.85;;
54665;SDS011;40566;50.006;36.180;2023-11-21T03:49:57;0.85;;;0.82;;
54665;SDS011;40566;50.006;36.180;2023-11-21T03:54:58;6.35;;;1.10;;
54665;SDS011;40566;50.006;36.180;2023-11-21T03:59:59;5.90;;;1.85;;
54665;SDS011;40566;50.006;36.180;2023-11-21T04:04:59;2.45;;;1.52;;
54665;SDS011;40566;50.006;36.180;2023-11-21T04:10:00;4.13;;;1.85;;
54665;SDS011;40566;50.006;36.180;2023-11-21T04:15:01;2.92;;;1.95;;
54665;SDS011;40566;50.006;36.180;2023-11-21T04:20:02;1.40;;;1.05;;
54665;SDS011;40566;50.006;36.180;2023-11-21T04:25:10;3.33;;;1.42;;
54665;SDS011;40566;50.006;36.180;2023-11-21T04:30:12;1.98;;;1.63;;
54665;SDS011;40566;50.006;36.180;2023-11-21T04:35:13;2.22;;;1.33;;
54665;SDS011;40566;50.006;36.180;2023-11-21T04:40:15;2.22;;;1.02;;
54665;SDS011;40566;50.006;36.180;2023-11-21T04:45:15;3.42;;;1.25;;
54665;SDS011;40566;50.006;36.180;2023-11-21T04:50:17;3.42;;;1.02;;
54665;SDS011;40566;50.006;36.180;2023-11-21T04:55:17;4.55;;;1.42;;
54665;SDS011;40566;50.006;36.180;2023-11-21T05:00:18;2.80;;;1.58;;
54665;SDS011;40566;50.006;36.180;2023-11-21T05:05:18;5.18;;;2.17;;
54665;SDS011;40566;50.006;36.180;2023-11-21T05:10:21;1.38;;;0.73;;
54665;SDS011;40566;50.006;36.180;2023-11-21T05:15:22;3.67;;;2.00;;
54665;SDS011;40566;50.006;36.180;2023-11-21T05:20:23;3.05;;;1.20;;
54665;SDS011;40566;50.006;36.180;2023-11-21T05:25:24;3.33;;;1.48;;
54665;SDS011;40566;50.006;36.180;2023-11-21T05:30:25;4.43;;;1.92;;
54665;SDS011;40566;50.006;36.180;2023-11-21T05:35:25;2.35;;;1.23;;
54665;SDS011;40566;50.006;36.180;2023-11-21T05:40:26;1.63;;;1.08;;
54665;SDS011;40566;50.006;36.180;2023-11-21T05:45:29;10.50;;;2.22;;
54665;SDS011;40566;50.006;36.180;2023-11-21T05:50:30;4.35;;;1.95;;
54665;SDS011;40566;50.006;36.180;2023-11-21T05:55:31;2.10;;;0.80;;
54665;SDS011;40566;50.006;36.180;2023-11-21T06:00:31;1.67;;;0.82;;
54665;SDS011;40566;50.006;36.180;2023-11-21T06:05:32;3.17;;;1.02;;
54665;SDS011;40566;50.006;36.180;2023-11-21T06:10:33;1.52;;;0.98;;
54665;SDS011;40566;50.006;36.180;2023-11-21T06:15:34;1.60;;;1.05;;
54665;SDS011;40566;50.006;36.180;2023-11-21T06:20:34;5.03;;;1.65;;
54665;SDS011;40566;50.006;36.180;2023-11-21T06:25:37;3.08;;;1.42;;
54665;SDS011;40566;50.006;36.180;2023-11-21T06:30:38;4.05;;;2.17;;
54665;SDS011;40566;50.006;36.180;2023-11-21T06:35:38;5.10;;;2.40;;
54665;SDS011;40566;50.006;36.180;2023-11-21T06:40:40;5.00;;;2.05;;
54665;SDS011;40566;50.006;36.180;2023-11-21T06:45:41;4.05;;;1.00;;
54665;SDS011;40566;50.006;36.180;2023-11-21T06:50:41;4.63;;;2.03;;
54665;SDS011;40566;50.006;36.180;2023-11-21T06:55:42;7.20;;;2.80;;
54665;SDS011;40566;50.006;36.180;2023-11-21T07:00:42;6.07;;;2.90;;
54665;SDS011;40566;50.006;36.180;2023-11-21T07:05:46;4.90;;;2.25;;
54665;SDS011;40566;50.006;36.180;2023-11-21T07:10:47;4.15;;;1.85;;
54665;SDS011;40566;50.006;36.180;2023-11-21T07:15:48;3.53;;;1.70;;
54665;SDS011;40566;50.006;36.180;2023-11-21T07:20:49;6.63;;;2.58;;
54665;SDS011;40566;50.006;36.180;2023-11-21T07:25:50;5.43;;;1.85;;
54665;SDS011;40566;50.006;36.180;2023-11-21T07:30:50;16.08;;;2.67;;
54665;SDS011;40566;50.006;36.180;2023-11-21T07:35:51;10.68;;;3.72;;
54665;SDS011;40566;50.006;36.180;2023-11-21T07:40:52;3.90;;;1.60;;
54665;SDS011;40566;50.006;36.180;2023-11-21T07:45:52;6.25;;;2.03;;
54665;SDS011;40566;50.006;36.180;2023-11-21T07:50:53;6.95;;;3.13;;
54665;SDS011;40566;50.006;36.180;2023-11-21T07:55:53;9.90;;;2.42;;
54665;SDS011;40566;50.006;36.180;2023-11-21T08:00:54;8.27;;;2.80;;
54665;SDS011;40566;50.006;36.180;2023-11-21T08:05:55;8.52;;;2.97;;
54665;SDS011;40566;50.006;36.180;2023-11-21T08:10:56;6.70;;;2.65;;
54665;SDS011;40566;50.006;36.180;2023-11-21T08:15:57;6.72;;;2.50;;
54665;SDS011;40566;50.006;36.180;2023-11-21T08:21:02;5.75;;;2.15;;
54665;SDS011;40566;50.006;36.180;2023-11-21T08:26:04;6.38;;;2.90;;
54665;SDS011;40566;50.006;36.180;2023-11-21T08:31:05;7.13;;;2.08;;
54665;SDS011;40566;50.006;36.180;2023-11-21T08:36:09;3.30;;;1.83;;
54665;SDS011;40566;50.006;36.180;2023-11-21T08:41:12;9.40;;;3.17;;
54665;SDS011;40566;50.006;36.180;2023-11-21T08:46:14;5.63;;;2.58;;
54665;SDS011;40566;50.006;36.180;2023-11-21T08:51:15;6.63;;;2.28;;
54665;SDS011;40566;50.006;36.180;2023-11-21T08:56:15;8.00;;;3.30;;
54665;SDS011;40566;50.006;36.180;2023-11-21T09:01:16;3.20;;;1.65;;
54665;SDS011;40566;50.006;36.180;2023-11-21T09:06:17;4.95;;;2.00;;
54665;SDS011;40566;50.006;36.180;2023-11-21T09:11:18;2.63;;;1.25;;
54665;SDS011;40566;50.006;36.180;2023-11-21T09:16:19;12.68;;;2.25;;
54665;SDS011;40566;50.006;36.180;2023-11-21T09:21:19;6.35;;;1.83;;
54665;SDS011;40566;50.006;36.180;2023-11-21T09:26:20;3.95;;;1.52;;
54665;SDS011;40566;50.006;36.180;2023-11-21T09:31:20;3.78;;;1.42;;
54665;SDS011;40566;50.006;36.180;2023-11-21T09:36:22;5.65;;;2.38;;
54665;SDS011;40566;50.006;36.180;2023-11-21T09:41:33;6.35;;;2.65;;
54665;SDS011;40566;50.006;36.180;2023-11-21T09:46:41;6.75;;;2.72;;
54665;SDS011;40566;50.006;36.180;2023-11-21T09:51:43;10.48;;;4.78;;
54665;SDS011;40566;50.006;36.180;2023-11-21T09:56:43;7.45;;;3.60;;
54665;SDS011;40566;50.006;36.180;2023-11-21T10:01:44;7.57;;;3.30;;
54665;SDS011;40566;50.006;36.180;2023-11-21T10:06:46;10.32;;;4.88;;
54665;SDS011;40566;50.006;36.180;2023-11-21T10:11:48;8.15;;;3.78;;
54665;SDS011;40566;50.006;36.180;2023-11-21T10:16:50;7.22;;;3.22;;
54665;SDS011;40566;50.006;36.180;2023-11-21T10:21:52;9.15;;;4.32;;
54665;SDS011;40566;50.006;36.180;2023-11-21T10:26:52;9.30;;;4.68;;
54665;SDS011;40566;50.006;36.180;2023-11-21T10:31:53;10.30;;;5.10;;
54665;SDS011;40566;50.006;36.180;2023-11-21T10:36:57;8.32;;;4.43;;
54665;SDS011;40566;50.006;36.180;2023-11-21T10:41:58;10.50;;;4.97;;
54665;SDS011;40566;50.006;36.180;2023-11-21T10:46:59;6.32;;;2.50;;
54665;SDS011;40566;50.006;36.180;2023-11-21T10:52:01;4.25;;;1.73;;
54665;SDS011;40566;50.006;36.180;2023-11-21T10:57:01;3.10;;;1.30;;
54665;SDS011;40566;50.006;36.180;2023-11-21T11:02:08;5.22;;;2.10;;
54665;SDS011;40566;50.006;36.180;2023-11-21T11:07:32;2.27;;;1.17;;
54665;SDS011;40566;50.006;36.180;2023-11-21T11:12:35;1.98;;;0.98;;
54665;SDS011;40566;50.006;36.180;2023-11-21T11:17:36;2.88;;;0.90;;
54665;SDS011;40566;50.006;36.180;2023-11-21T11:22:44;5.90;;;0.98;;
54665;SDS011;40566;50.006;36.180;2023-11-21T11:28:10;2.80;;;1.60;;
54665;SDS011;40566;50.006;36.180;2023-11-21T11:38:33;1.77;;;0.93;;
54665;SDS011;40566;50.006;36.180;2023-11-21T11:43:35;2.55;;;1.42;;
54665;SDS011;40566;50.006;36.180;2023-11-21T11:48:45;1.45;;;0.52;;
54665;SDS011;40566;50.006;36.180;2023-11-21T11:53:46;1.45;;;0.85;;
54665;SDS011;40566;50.006;36.180;2023-11-21T11:58:48;6.32;;;1.55;;
54665;SDS011;40566;50.006;36.180;2023-11-21T12:09:17;2.70;;;0.70;;
54665;SDS011;40566;50.006;36.180;2023-11-21T12:14:26;4.03;;;1.30;;
54665;SDS011;40566;50.006;36.180;2023-11-21T12:19:28;1.25;;;0.98;;
54665;SDS011;40566;50.006;36.180;2023-11-21T12:24:29;1.98;;;1.00;;
54665;SDS011;40566;50.006;36.180;2023-11-21T12:29:29;9.00;;;2.33;;
54665;SDS011;40566;50.006;36.180;2023-11-21T12:34:31;1.67;;;1.13;;
54665;SDS011;40566;50.006;36.180;2023-11-21T12:39:32;1.40;;;0.80;;
54665;SDS011;40566;50.006;36.180;2023-11-21T12:44:32;0.60;;;0.57;;
54665;SDS011;40566;50.006;36.180;2023-11-21T12:49:34;21.02;;;7.15;;
54665;SDS011;40566;50.006;36.180;2023-11-21T12:54:35;25.58;;;6.65;;
54665;SDS011;40566;50.006;36.180;2023-11-21T12:59:35;19.95;;;5.45;;
54665;SDS011;40566;50.006;36.180;2023-11-21T13:04:39;6.85;;;3.17;;
54665;SDS011;40566;50.006;36.180;2023-11-21T13:09:40;16.08;;;5.40;;
54665;SDS011;40566;50.006;36.180;2023-11-21T13:14:40;12.00;;;5.43;;
54665;SDS011;40566;50.006;36.180;2023-11-21T13:19:41;6.60;;;3.05;;
54665;SDS011;40566;50.006;36.180;2023-11-21T13:37:13;2.38;;;1.45;;
54665;SDS011;40566;50.006;36.180;2023-11-21T13:42:13;2.25;;;1.55;;
54665;SDS011;40566;50.006;36.180;2023-11-21T13:47:16;4.90;;;2.50;;
54665;SDS011;40566;50.006;36.180;2023-11-21T13:58:33;1.98;;;1.42;;
54665;SDS011;40566;50.006;36.180;2023-11-21T14:03:50;2.78;;;1.42;;
54665;SDS011;40566;50.006;36.180;2023-11-21T14:08:57;6.30;;;1.23;;
54665;SDS011;40566;50.006;36.180;2023-11-21T14:13:57;1.08;;;0.50;;
54665;SDS011;40566;50.006;36.180;2023-11-21T14:18:59;1.30;;;0.80;;
54665;SDS011;40566;50.006;36.180;2023-11-21T14:24:09;2.42;;;1.33;;
54665;SDS011;40566;50.006;36.180;2023-11-21T14:29:13;4.88;;;1.45;;
54665;SDS011;40566;50.006;36.180;2023-11-21T14:34:20;0.85;;;0.40;;
54665;SDS011;40566;50.006;36.180;2023-11-21T14:39:21;0.47;;;0.40;;
54665;SDS011;40566;50.006;36.180;2023-11-21T14:44:27;1.60;;;0.75;;
54665;SDS011;40566;50.006;36.180;2023-11-21T14:49:32;4.50;;;0.85;;
54665;SDS011;40566;50.006;36.180;2023-11-21T14:54:48;0.30;;;0.30;;
54665;SDS011;40566;50.006;36.180;2023-11-21T15:00:03;0.50;;;0.38;;
54665;SDS011;40566;50.006;36.180;2023-11-21T15:05:09;1.35;;;1.05;;
54665;SDS011;40566;50.006;36.180;2023-11-21T15:10:16;2.88;;;1.73;;
54665;SDS011;40566;50.006;36.180;2023-11-21T15:15:16;1.17;;;0.75;;
54665;SDS011;40566;50.006;36.180;2023-11-21T15:20:18;3.20;;;1.30;;
54665;SDS011;40566;50.006;36.180;2023-11-21T15:25:19;3.10;;;2.15;;
54665;SDS011;40566;50.006;36.180;2023-11-21T15:30:19;5.43;;;2.28;;
54665;SDS011;40566;50.006;36.180;2023-11-21T15:35:24;3.10;;;1.80;;
54665;SDS011;40566;50.006;36.180;2023-11-21T15:40:27;2.65;;;1.25;;
54665;SDS011;40566;50.006;36.180;2023-11-21T15:45:28;2.13;;;1.58;;
54665;SDS011;40566;50.006;36.180;2023-11-21T15:50:28;5.80;;;2.50;;
54665;SDS011;40566;50.006;36.180;2023-11-21T15:55:31;2.55;;;1.63;;
54665;SDS011;40566;50.006;36.180;2023-11-21T16:00:34;3.58;;;1.73;;
54665;SDS011;40566;50.006;36.180;2023-11-21T16:05:35;8.05;;;3.00;;
54665;SDS011;40566;50.006;36.180;2023-11-21T16:10:36;2.60;;;1.33;;
54665;SDS011;40566;50.006;36.180;2023-11-21T16:15:36;4.18;;;1.75;;
54665;SDS011;40566;50.006;36.180;2023-11-21T16:20:38;1.85;;;1.10;;
54665;SDS011;40566;50.006;36.180;2023-11-21T16:25:38;5.07;;;2.97;;
54665;SDS011;40566;50.006;36.180;2023-11-21T16:30:40;2.38;;;0.93;;
54665;SDS011;40566;50.006;36.180;2023-11-21T16:35:40;4.22;;;2.13;;
54665;SDS011;40566;50.006;36.180;2023-11-21T16:40:41;3.50;;;2.35;;
54665;SDS011;40566;50.006;36.180;2023-11-21T16:45:46;6.78;;;3.13;;
54665;SDS011;40566;50.006;36.180;2023-11-21T16:50:51;4.00;;;2.20;;
54665;SDS011;40566;50.006;36.180;2023-11-21T16:55:52;4.68;;;1.90;;
54665;SDS011;40566;50.006;36.180;2023-11-21T17:00:53;15.85;;;4.50;;
54665;SDS011;40566;50.006;36.180;2023-11-21T17:05:55;20.42;;;12.57;;
54665;SDS011;40566;50.006;36.180;2023-11-21T17:10:56;29.23;;;13.63;;
54665;SDS011;40566;50.006;36.180;2023-11-21T17:15:56;9.25;;;4.55;;
54665;SDS011;40566;50.006;36.180;2023-11-21T17:20:57;33.67;;;12.88;;
54665;SDS011;40566;50.006;36.180;2023-11-21T17:25:57;17.73;;;11.85;;
54665;SDS011;40566;50.006;36.180;2023-11-21T17:30:58;12.05;;;6.32;;
54665;SDS011;40566;50.006;36.180;2023-11-21T17:35:58;10.05;;;5.63;;
54665;SDS011;40566;50.006;36.180;2023-11-21T17:40:59;10.77;;;3.58;;
54665;SDS011;40566;50.006;36.180;2023-11-21T17:46:00;9.68;;;3.70;;
54665;SDS011;40566;50.006;36.180;2023-11-21T17:51:01;11.90;;;6.72;;
54665;SDS011;40566;50.006;36.180;2023-11-21T17:56:01;11.57;;;6.30;;
54665;SDS011;40566;50.006;36.180;2023-11-21T18:01:02;5.85;;;2.45;;
54665;SDS011;40566;50.006;36.180;2023-11-21T18:06:03;3.13;;;1.90;;
54665;SDS011;40566;50.006;36.180;2023-11-21T18:11:04;8.55;;;3.08;;
54665;SDS011;40566;50.006;36.180;2023-11-21T18:16:05;2.45;;;1.60;;
54665;SDS011;40566;50.006;36.180;2023-11-21T18:21:06;6.50;;;3.20;;
54665;SDS011;40566;50.006;36.180;2023-11-21T18:26:07;4.50;;;2.42;;
54665;SDS011;40566;50.006;36.180;2023-11-21T18:31:07;4.68;;;2.05;;
54665;SDS011;40566;50.006;36.180;2023-11-21T18:36:08;3.95;;;2.22;;
54665;SDS011;40566;50.006;36.180;2023-11-21T18:41:08;20.02;;;5.90;;
54665;SDS011;40566;50.006;36.180;2023-11-21T18:46:09;4.00;;;2.40;;
54665;SDS011;40566;50.006;36.180;2023-11-21T18:51:10;9.32;;;4.10;;
54665;SDS011;40566;50.006;36.180;2023-11-21T18:56:20;7.10;;;4.40;;
54665;SDS011;40566;50.006;36.180;2023-11-21T19:01:24;5.10;;;2.80;;
54665;SDS011;40566;50.006;36.180;2023-11-21T19:06:26;3.10;;;1.45;;
54665;SDS011;40566;50.006;36.180;2023-11-21T19:11:27;2.08;;;1.67;;
54665;SDS011;40566;50.006;36.180;2023-11-21T19:16:27;3.55;;;2.08;;
54665;SDS011;40566;50.006;36.180;2023-11-21T19:21:29;11.18;;;4.03;;
54665;SDS011;40566;50.006;36.180;2023-11-21T19:26:29;15.27;;;6.97;;
54665;SDS011;40566;50.006;36.180;2023-11-21T19:31:31;8.35;;;4.53;;
54665;SDS011;40566;50.006;36.180;2023-11-21T19:36:31;12.77;;;3.35;;
54665;SDS011;40566;50.006;36.180;2023-11-21T19:41:32;3.83;;;2.22;;
54665;SDS011;40566;50.006;36.180;2023-11-21T19:46:34;7.65;;;2.55;;
54665;SDS011;40566;50.006;36.180;2023-11-21T19:51:34;9.18;;;1.60;;
54665;SDS011;40566;50.006;36.180;2023-11-21T19:56:37;6.78;;;3.08;;
54665;SDS011;40566;50.006;36.180;2023-11-21T20:01:38;4.70;;;2.45;;
54665;SDS011;40566;50.006;36.180;2023-11-21T20:06:40;1.63;;;1.15;;
54665;SDS011;40566;50.006;36.180;2023-11-21T20:11:42;3.00;;;1.55;;
54665;SDS011;40566;50.006;36.180;2023-11-21T20:16:46;3.58;;;2.30;;
54665;SDS011;40566;50.006;36.180;2023-11-21T20:21:49;10.50;;;3.38;;
54665;SDS011;40566;50.006;36.180;2023-11-21T20:26:51;7.55;;;3.05;;
54665;SDS011;40566;50.006;36.180;2023-11-21T20:31:53;10.07;;;3.78;;
54665;SDS011;40566;50.006;36.180;2023-11-21T20:36:54;9.75;;;2.85;;
54665;SDS011;40566;50.006;36.180;2023-11-21T20:41:55;2.42;;;1.88;;
54665;SDS011;40566;50.006;36.180;2023-11-21T20:46:56;13.95;;;3.22;;
54665;SDS011;40566;50.006;36.180;2023-11-21T20:51:57;13.95;;;3.75;;
54665;SDS011;40566;50.006;36.180;2023-11-21T20:56:58;26.73;;;8.10;;
54665;SDS011;40566;50.006;36.180;2023-11-21T21:02:00;9.27;;;4.00;;
54665;SDS011;40566;50.006;36.180;2023-11-21T21:07:01;14.63;;;5.30;;
54665;SDS011;40566;50.006;36.180;2023-11-21T21:12:03;3.55;;;2.00;;
54665;SDS011;40566;50.006;36.180;2023-11-21T21:17:04;12.30;;;2.58;;
54665;SDS011;40566;50.006;36.180;2023-11-21T21:22:05;2.47;;;1.98;;
54665;SDS011;40566;50.006;36.180;2023-11-21T21:27:06;5.03;;;2.25;;
54665;SDS011;40566;50.006;36.180;2023-11-21T21:32:07;3.83;;;2.50;;
54665;SDS011;40566;50.006;36.180;2023-11-21T21:37:08;3.42;;;2.25;;
54665;SDS011;40566;50.006;36.180;2023-11-21T21:42:09;5.75;;;2.42;;
54665;SDS011;40566;50.006;36.180;2023-11-21T21:47:10;4.57;;;2.70;;
54665;SDS011;40566;50.006;36.180;2023-11-21T21:52:10;6.80;;;3.78;;
54665;SDS011;40566;50.006;36.180;2023-11-21T21:57:11;3.53;;;2.05;;
54665;SDS011;40566;50.006;36.180;2023-11-21T22:02:11;5.97;;;3.13;;
54665;SDS011;40566;50.006;36.180;2023-11-21T22:07:12;8.50;;;3.05;;
54665;SDS011;40566;50.006;36.180;2023-11-21T22:12:13;21.67;;;2.95;;
54665;SDS011;40566;50.006;36.180;2023-11-21T22:17:13;10.02;;;2.75;;
54665;SDS011;40566;50.006;36.180;2023-11-21T22:22:16;9.23;;;3.35;;
54665;SDS011;40566;50.006;36.180;2023-11-21T22:27:17;11.35;;;3.70;;
54665;SDS011;40566;50.006;36.180;2023-11-21T22:32:18;8.77;;;3.00;;
54665;SDS011;40566;50.006;36.180;2023-11-21T22:37:19;12.65;;;3.95;;
54665;SDS011;40566;50.006;36.180;2023-11-21T22:42:19;9.45;;;4.05;;
54665;SDS011;40566;50.006;36.180;2023-11-21T22:47:20;5.88;;;2.70;;
54665;SDS011;40566;50.006;36.180;2023-11-21T22:52:21;10.82;;;4.93;;
54665;SDS011;40566;50.006;36.180;2023-11-21T22:57:24;12.20;;;6.80;;
54665;SDS011;40566;50.006;36.180;2023-11-21T23:02:25;14.00;;;4.85;;
54665;SDS011;40566;50.006;36.180;2023-11-21T23:07:25;9.63;;;3.55;;
54665;SDS011;40566;50.006;36.180;2023-11-21T23:12:26;4.78;;;2.78;;
54665;SDS011;40566;50.006;36.180;2023-11-21T23:17:27;7.00;;;3.50;;
54665;SDS011;40566;50.006;36.180;2023-11-21T23:22:30;9.23;;;2.92;;
54665;SDS011;40566;50.006;36.180;2023-11-21T23:27:32;6.68;;;3.35;;
54665;SDS011;40566;50.006;36.180;2023-11-21T23:32:33;4.38;;;2.75;;
54665;SDS011;40566;50.006;36.180;2023-11-21T23:37:34;4.47;;;2.75;;
54665;SDS011;40566;50.006;36.180;2023-11-21T23:42:34;4.22;;;3.35;;
54665;SDS011;40566;50.006;36.180;2023-11-21T23:47:35;5.93;;;2.75;;
54665;SDS011;40566;50.006;36.180;2023-11-21T23:52:35;3.80;;;2.50;;
54665;SDS011;40566;50.006;36.180;2023-11-21T23:57:36;7.78;;;3.90;;
